Time;durP1;ratioP1;P1;durP2;ratioP2;P2;SDS_P1;SDS_P2;PMS_P1;PMS_P2;Temp;Humidity;BMP_temperature;BMP_pressure;BME280_temperature;BME280_humidity;BME280_pressure;Samples;Min_cycle;Max_cycle;Signal;HPM_P1;HPM_P2
2022/01/08 00:00:39;;;;;;;5.22;2.83;;;;;;;0.60;100.00;100843.09;4717153;30;20527;-81
2022/01/08 00:03:08;;;;;;;7.30;2.35;;;;;;;0.56;100.00;100846.38;4739070;30;20040;-83
2022/01/08 00:05:37;;;;;;;11.82;3.30;;;;;;;0.51;100.00;100840.09;4716043;30;20082;-81
2022/01/08 00:08:05;;;;;;;5.90;2.53;;;;;;;0.47;100.00;100840.78;4711365;30;20044;-80
2022/01/08 00:10:34;;;;;;;4.53;2.60;;;;;;;0.45;100.00;100845.00;4739579;30;20055;-80
2022/01/08 00:13:05;;;;;;;6.78;2.70;;;;;;;0.42;100.00;100825.03;4719742;30;20054;-82
2022/01/08 00:15:36;;;;;;;11.48;2.65;;;;;;;0.42;100.00;100839.69;4703304;30;20573;-80
2022/01/08 00:18:04;;;;;;;4.82;2.70;;;;;;;0.41;100.00;100837.91;4719521;30;20059;-80
2022/01/08 00:20:35;;;;;;;10.93;3.35;;;;;;;0.38;100.00;100828.31;4734956;30;20165;-81
2022/01/08 00:23:04;;;;;;;8.27;2.95;;;;;;;0.36;100.00;100838.63;4700866;30;20085;-81
2022/01/08 00:25:35;;;;;;;5.80;2.92;;;;;;;0.36;100.00;100830.84;4744261;30;20063;-82
2022/01/08 00:28:04;;;;;;;6.88;2.97;;;;;;;0.34;100.00;100823.78;4753189;30;20043;-81
2022/01/08 00:30:33;;;;;;;7.55;3.08;;;;;;;0.33;100.00;100817.72;4739661;30;20271;-81
2022/01/08 00:33:01;;;;;;;9.30;3.05;;;;;;;0.32;100.00;100822.84;4756064;30;20051;-81
2022/01/08 00:35:31;;;;;;;6.05;2.60;;;;;;;0.33;100.00;100824.63;4754656;30;20055;-81
2022/01/08 00:38:00;;;;;;;9.77;3.10;;;;;;;0.33;100.00;100820.31;4730306;30;20040;-80
2022/01/08 00:40:29;;;;;;;10.40;3.30;;;;;;;0.35;100.00;100829.06;4744599;30;20062;-81
2022/01/08 00:42:59;;;;;;;4.10;2.78;;;;;;;0.38;100.00;100826.59;4757188;30;20055;-80
2022/01/08 00:45:27;;;;;;;9.43;2.40;;;;;;;0.41;100.00;100836.22;4756597;30;20549;-82
2022/01/08 00:48:00;;;;;;;6.05;2.70;;;;;;;0.45;100.00;100834.63;4748878;30;20052;-81
2022/01/08 00:50:31;;;;;;;7.82;2.67;;;;;;;0.46;100.00;100842.50;4743955;30;20339;-82
2022/01/08 00:52:59;;;;;;;6.07;2.60;;;;;;;0.48;100.00;100848.63;4735237;30;20052;-81
2022/01/08 00:55:28;;;;;;;4.95;2.47;;;;;;;0.52;100.00;100850.53;4724277;30;20738;-81
2022/01/08 00:57:57;;;;;;;7.00;3.03;;;;;;;0.55;100.00;100840.31;4764204;30;20059;-79
2022/01/08 01:00:25;;;;;;;5.78;2.90;;;;;;;0.57;100.00;100830.88;4731268;30;20530;-82
2022/01/08 01:02:54;;;;;;;10.45;2.95;;;;;;;0.60;100.00;100834.44;4719779;30;20056;-80
2022/01/08 01:05:22;;;;;;;5.70;2.60;;;;;;;0.61;100.00;100828.44;4747486;30;20058;-81
2022/01/08 01:07:53;;;;;;;8.18;2.85;;;;;;;0.59;100.00;100820.59;4764658;30;20059;-81
2022/01/08 01:10:22;;;;;;;12.80;3.45;;;;;;;0.58;100.00;100821.38;4706124;30;20054;-80
2022/01/08 01:12:51;;;;;;;4.72;2.88;;;;;;;0.57;100.00;100824.81;4702447;30;20064;-81
2022/01/08 01:15:19;;;;;;;10.38;3.22;;;;;;;0.54;100.00;100827.25;4734838;30;20063;-82
2022/01/08 01:17:48;;;;;;;4.40;2.50;;;;;;;0.52;100.00;100828.91;4712264;30;20055;-81
2022/01/08 01:20:21;;;;;;;5.80;2.47;;;;;;;0.51;100.00;100835.81;4734033;30;20063;-80
2022/01/08 01:22:59;;;;;;;5.88;2.42;;;;;;;0.48;100.00;100829.59;4741336;30;20541;-81
2022/01/08 01:26:12;;;;;;;8.50;2.88;;;;;;;0.44;100.00;100832.88;4707109;30;20036;-81
2022/01/08 01:47:28;;;;;;;5.43;3.05;;;;;;;0.32;100.00;100821.16;4785381;30;20047;-81
2022/01/08 01:49:56;;;;;;;8.02;3.40;;;;;;;0.30;100.00;100814.13;4754987;30;20576;-81
2022/01/08 01:52:25;;;;;;;10.35;3.70;;;;;;;0.29;100.00;100820.13;4750033;30;20059;-80
2022/01/08 01:54:53;;;;;;;4.85;3.50;;;;;;;0.27;100.00;100833.00;4736974;30;20145;-81
2022/01/08 01:57:27;;;;;;;6.03;3.30;;;;;;;0.27;100.00;100827.84;4722428;30;20059;-81
2022/01/08 01:59:58;;;;;;;7.72;4.15;;;;;;;0.27;100.00;100822.66;4724095;30;20059;-81
2022/01/08 02:02:26;;;;;;;7.60;3.67;;;;;;;0.31;100.00;100832.34;4741617;30;20054;-81
2022/01/08 02:04:55;;;;;;;8.13;4.18;;;;;;;0.33;100.00;100830.69;4733465;30;20354;-82
2022/01/08 02:07:28;;;;;;;7.72;4.15;;;;;;;0.35;100.00;100836.81;4746619;30;20040;-81
2022/01/08 02:09:57;;;;;;;10.35;4.28;;;;;;;0.37;100.00;100837.78;4723630;30;20688;-80
2022/01/08 02:12:31;;;;;;;12.30;4.07;;;;;;;0.40;100.00;100829.28;4714604;30;20055;-80
2022/01/08 02:15:00;;;;;;;4.60;3.72;;;;;;;0.47;100.00;100840.78;4741361;30;20154;-80
2022/01/08 02:17:29;;;;;;;5.82;3.72;;;;;;;0.49;100.00;100832.25;4730157;30;20067;-81
2022/01/08 02:19:57;;;;;;;12.68;3.97;;;;;;;0.53;100.00;100830.66;4727996;30;20278;-80
2022/01/08 02:22:26;;;;;;;6.50;3.63;;;;;;;0.58;100.00;100842.13;4703111;30;20048;-82
2022/01/08 02:24:54;;;;;;;5.40;3.90;;;;;;;0.61;100.00;100844.00;4738698;30;20239;-80
2022/01/08 02:27:23;;;;;;;6.53;3.53;;;;;;;0.63;100.00;100832.84;4718846;30;20051;-80
2022/01/08 02:29:54;;;;;;;7.63;3.75;;;;;;;0.65;100.00;100846.78;4701245;30;20193;-81
2022/01/08 02:32:30;;;;;;;7.15;3.90;;;;;;;0.67;100.00;100841.66;4713997;30;20402;-80
2022/01/08 02:34:58;;;;;;;8.18;4.30;;;;;;;0.69;100.00;100853.84;4748148;30;20178;-82
2022/01/08 02:37:30;;;;;;;5.70;3.40;;;;;;;0.70;100.00;100847.88;4746600;30;20055;-80
2022/01/08 02:40:01;;;;;;;8.15;3.92;;;;;;;0.72;100.00;100851.41;4762933;30;20133;-80
2022/01/08 02:42:37;;;;;;;8.07;3.88;;;;;;;0.73;100.00;100841.91;4720467;30;20056;-80
2022/01/08 02:45:07;;;;;;;7.75;4.25;;;;;;;0.72;100.00;100825.47;4737084;30;20055;-81
2022/01/08 02:47:36;;;;;;;7.95;3.80;;;;;;;0.71;100.00;100831.47;4751405;30;20062;-81
2022/01/08 02:50:05;;;;;;;7.20;3.78;;;;;;;0.68;100.00;100826.16;4727218;30;20439;-82
2022/01/08 02:52:34;;;;;;;7.70;3.78;;;;;;;0.66;100.00;100824.31;4724567;30;20040;-81
2022/01/08 02:55:04;;;;;;;8.27;3.33;;;;;;;0.63;100.00;100816.41;4718430;30;20047;-81
2022/01/08 02:57:32;;;;;;;5.20;3.50;;;;;;;0.61;100.00;100815.47;4710580;30;20060;-82
2022/01/08 03:00:01;;;;;;;8.85;3.53;;;;;;;0.59;100.00;100825.78;4690726;30;20269;-81
2022/01/08 03:02:30;;;;;;;6.93;3.50;;;;;;;0.57;100.00;100811.84;4746986;30;20048;-81
2022/01/08 03:05:01;;;;;;;6.47;3.40;;;;;;;0.54;100.00;100809.13;4726692;30;21956;-81
2022/01/08 03:07:29;;;;;;;6.60;3.58;;;;;;;0.53;100.00;100808.25;4729765;30;20403;-80
2022/01/08 03:09:58;;;;;;;7.97;4.00;;;;;;;0.52;100.00;100810.75;4751090;30;20075;-81
2022/01/08 03:12:27;;;;;;;7.22;3.90;;;;;;;0.50;100.00;100799.44;4728540;30;20079;-81
2022/01/08 03:14:56;;;;;;;12.48;4.65;;;;;;;0.49;100.00;100795.06;4711903;30;20283;-81
2022/01/08 03:17:25;;;;;;;8.57;3.78;;;;;;;0.48;100.00;100798.50;4761027;30;20089;-81
2022/01/08 03:19:59;;;;;;;8.52;4.30;;;;;;;0.47;100.00;100791.50;4746096;30;20044;-82
2022/01/08 03:22:29;;;;;;;7.55;3.75;;;;;;;0.44;100.00;100796.59;4695903;30;20055;-80
2022/01/08 03:24:58;;;;;;;8.60;3.80;;;;;;;0.42;100.00;100790.41;4749200;30;20043;-81
2022/01/08 03:27:27;;;;;;;8.00;4.32;;;;;;;0.39;100.00;100792.06;4775093;29;20552;-80
2022/01/08 03:29:56;;;;;;;6.88;4.25;;;;;;;0.38;100.00;100798.09;4722935;30;20056;-81
2022/01/08 03:32:25;;;;;;;8.95;4.47;;;;;;;0.36;100.00;100789.34;4749008;30;20043;-81
2022/01/08 03:34:53;;;;;;;5.35;3.97;;;;;;;0.35;100.00;100797.94;4748781;30;20059;-81
2022/01/08 03:37:22;;;;;;;7.63;4.32;;;;;;;0.35;100.00;100797.94;4735612;30;20048;-81
2022/01/08 03:39:50;;;;;;;15.48;4.90;;;;;;;0.34;100.00;100791.00;4740029;30;20047;-80
2022/01/08 03:42:19;;;;;;;9.45;4.20;;;;;;;0.33;100.00;100790.94;4771254;30;20042;-81
2022/01/08 03:44:47;;;;;;;5.20;3.40;;;;;;;0.31;100.00;100798.63;4714733;30;20414;-81
2022/01/08 03:49:54;;;;;;;7.03;3.90;;;;;;;0.31;100.00;100801.22;4747740;30;20047;-81
2022/01/08 03:52:23;;;;;;;6.22;3.50;;;;;;;0.31;100.00;100809.00;4729867;30;20043;-81
2022/01/08 03:54:51;;;;;;;7.00;3.38;;;;;;;0.31;100.00;100808.13;4746307;30;20055;-81
2022/01/08 03:57:20;;;;;;;5.78;3.50;;;;;;;0.29;100.00;100809.75;4753378;30;20048;-80
2022/01/08 03:59:49;;;;;;;4.32;3.72;;;;;;;0.27;100.00;100812.28;4732881;30;20062;-81
2022/01/08 04:02:17;;;;;;;11.85;4.00;;;;;;;0.28;100.00;100814.03;4731744;30;20426;-80
2022/01/08 04:04:48;;;;;;;8.00;3.25;;;;;;;0.29;100.00;100820.13;4750474;30;20044;-81
2022/01/08 04:07:16;;;;;;;;;;;;;;;0.29;100.00;100809.75;4757549;30;20415;-81
2022/01/08 04:09:45;;;;;;;3.90;2.65;;;;;;;0.33;100.00;100816.84;4761238;30;19933;-81
2022/01/08 04:12:19;;;;;;;4.18;2.95;;;;;;;0.33;100.00;100817.72;4747971;30;20514;-80
2022/01/08 04:15:02;;;;;;;5.93;3.28;;;;;;;0.36;100.00;100812.69;4729897;30;20062;-81
2022/01/08 04:17:30;;;;;;;5.50;3.38;;;;;;;0.38;100.00;100816.22;4728442;30;20052;-81
2022/01/08 04:19:59;;;;;;;3.40;3.03;;;;;;;0.38;100.00;100820.53;4732943;30;20431;-80
2022/01/08 04:22:28;;;;;;;4.35;2.88;;;;;;;0.37;100.00;100827.41;4732991;30;20044;-80
2022/01/08 04:24:57;;;;;;;9.23;3.05;;;;;;;0.38;100.00;100831.78;4732367;30;20351;-81
2022/01/08 04:27:25;;;;;;;6.60;3.05;;;;;;;0.37;100.00;100830.00;4736425;30;20060;-81
2022/01/08 04:29:53;;;;;;;4.22;2.67;;;;;;;0.37;100.00;100840.38;4701280;30;20271;-82
2022/01/08 04:32:22;;;;;;;5.35;2.72;;;;;;;0.37;100.00;100842.97;4740233;29;20044;-81
2022/01/08 04:34:50;;;;;;;3.45;3.13;;;;;;;0.39;100.00;100843.91;4730833;30;20048;-81
2022/01/08 04:37:19;;;;;;;2.40;2.20;;;;;;;0.41;100.00;100858.66;4766923;30;20052;-82
2022/01/08 04:39:48;;;;;;;6.95;3.20;;;;;;;0.45;100.00;100860.56;4728203;30;20047;-81
2022/01/08 04:42:16;;;;;;;10.05;2.60;;;;;;;0.47;100.00;100854.63;4765725;30;20052;-81
2022/01/08 04:44:45;;;;;;;5.20;2.90;;;;;;;0.44;100.00;100861.41;4759456;30;20079;-83
2022/01/08 04:47:14;;;;;;;5.82;3.05;;;;;;;0.39;100.00;100861.19;4755792;30;20295;-81
2022/01/08 04:49:42;;;;;;;6.05;2.67;;;;;;;0.34;100.00;100858.41;4713668;30;20507;-83
2022/01/08 04:52:10;;;;;;;8.52;2.78;;;;;;;0.31;100.00;100855.66;4737133;30;20043;-80
2022/01/08 04:54:39;;;;;;;8.52;3.30;;;;;;;0.29;100.00;100857.28;4747684;30;20047;-84
2022/01/08 04:57:08;;;;;;;4.60;3.03;;;;;;;0.24;100.00;100858.78;4742688;30;20176;-81
2022/01/08 04:59:37;;;;;;;7.40;2.88;;;;;;;0.24;100.00;100863.09;4764837;30;20062;-81
2022/01/08 05:02:06;;;;;;;7.60;2.70;;;;;;;0.20;100.00;100856.88;4726512;30;20051;-80
2022/01/08 05:04:35;;;;;;;7.75;2.78;;;;;;;0.19;100.00;100861.19;4721361;30;20051;-82
2022/01/08 05:07:03;;;;;;;6.82;2.60;;;;;;;0.16;100.00;100867.94;4745310;30;20047;-80
2022/01/08 05:09:32;;;;;;;5.15;2.50;;;;;;;0.15;100.00;100866.16;4751169;30;20070;-81
2022/01/08 05:12:00;;;;;;;6.68;2.53;;;;;;;0.15;100.00;100856.69;4716489;30;20181;-81
2022/01/08 05:14:29;;;;;;;5.00;3.00;;;;;;;0.17;100.00;100859.31;4732123;30;20059;-81
2022/01/08 05:17:00;;;;;;;4.93;2.45;;;;;;;0.17;100.00;100851.53;4758072;30;20264;-81
2022/01/08 05:19:50;;;;;;;5.38;2.50;;;;;;;0.18;100.00;100849.03;4713416;30;20055;-82
2022/01/08 05:22:24;;;;;;;5.75;2.83;;;;;;;0.19;100.00;100845.63;4727177;30;20523;-79
2022/01/08 05:24:54;;;;;;;4.53;1.88;;;;;;;0.16;100.00;100852.38;4755075;30;20059;-83
2022/01/08 05:27:23;;;;;;;4.20;2.38;;;;;;;0.14;100.00;100838.47;4772613;30;20051;-81
2022/01/08 05:29:52;;;;;;;3.40;2.10;;;;;;;0.16;100.00;100855.84;4745020;30;20052;-81
2022/01/08 05:32:21;;;;;;;3.72;2.03;;;;;;;0.16;100.00;100852.38;4713782;30;20043;-81
2022/01/08 05:34:52;;;;;;;8.70;2.53;;;;;;;0.18;100.00;100850.75;4708794;30;20044;-81
2022/01/08 05:37:20;;;;;;;5.40;2.42;;;;;;;0.18;100.00;100848.16;4733666;30;20067;-80
2022/01/08 05:39:50;;;;;;;7.60;2.45;;;;;;;0.20;100.00;100856.88;4735082;30;20051;-82
2022/01/08 05:42:19;;;;;;;8.83;2.73;;;;;;;0.22;100.00;100860.44;4733859;30;20036;-80
2022/01/08 05:44:47;;;;;;;7.40;2.65;;;;;;;0.23;100.00;100857.03;4734701;30;20321;-82
2022/01/08 05:47:16;;;;;;;6.57;2.38;;;;;;;0.25;100.00;100864.88;4766280;30;20061;-81
2022/01/08 05:49:44;;;;;;;5.28;2.40;;;;;;;0.27;100.00;100855.47;4735247;30;20379;-82
2022/01/08 05:52:13;;;;;;;6.03;2.15;;;;;;;0.28;100.00;100855.50;4755879;30;20184;-80
2022/01/08 05:54:42;;;;;;;6.03;2.30;;;;;;;0.29;100.00;100862.47;4776605;29;20054;-82
2022/01/08 05:57:11;;;;;;;6.88;2.63;;;;;;;0.29;100.00;100854.72;4739701;30;20060;-80
2022/01/08 05:59:40;;;;;;;9.20;2.28;;;;;;;0.28;100.00;100863.28;4750279;30;20048;-82
2022/01/08 06:02:09;;;;;;;4.32;2.60;;;;;;;0.29;100.00;100875.44;4744649;30;20058;-81
2022/01/08 06:04:37;;;;;;;7.55;2.38;;;;;;;0.28;100.00;100878.84;4713226;30;20043;-81
2022/01/08 06:07:06;;;;;;;10.65;2.65;;;;;;;0.29;100.00;100879.75;4715194;30;20288;-81
2022/01/08 06:09:35;;;;;;;5.47;2.58;;;;;;;0.27;100.00;100876.19;4718733;30;20384;-81
2022/01/08 06:12:04;;;;;;;4.55;2.03;;;;;;;0.27;100.00;100881.38;4724585;30;20467;-82
2022/01/08 06:14:33;;;;;;;3.97;2.20;;;;;;;0.25;100.00;100889.09;4741056;30;20051;-81
2022/01/08 06:17:01;;;;;;;8.00;2.08;;;;;;;0.25;100.00;100891.69;4740952;30;20381;-82
2022/01/08 06:19:29;;;;;;;5.40;2.10;;;;;;;0.26;100.00;100892.56;4733732;30;20051;-80
2022/01/08 06:21:59;;;;;;;8.05;2.47;;;;;;;0.24;100.00;100889.88;4741684;30;20087;-81
2022/01/08 06:24:27;;;;;;;6.13;2.20;;;;;;;0.24;100.00;100897.66;4763649;30;20051;-81
2022/01/08 06:26:56;;;;;;;7.70;2.83;;;;;;;0.24;100.00;100892.47;4742865;30;20079;-82
2022/01/08 06:29:25;;;;;;;9.40;3.03;;;;;;;0.24;100.00;100889.00;4739663;30;20055;-81
2022/01/08 06:31:53;;;;;;;8.13;2.28;;;;;;;0.24;100.00;100892.47;4744546;30;20056;-81
2022/01/08 06:34:22;;;;;;;7.30;2.40;;;;;;;0.23;100.00;100895.91;4738212;30;20054;-80
2022/01/08 06:36:51;;;;;;;6.53;2.22;;;;;;;0.22;100.00;100886.34;4734912;30;20043;-80
2022/01/08 06:39:21;;;;;;;5.18;2.20;;;;;;;0.22;100.00;100893.25;4751190;30;20062;-82
2022/01/08 06:41:50;;;;;;;6.03;2.08;;;;;;;0.22;100.00;100893.25;4750703;30;20060;-81
2022/01/08 06:44:18;;;;;;;3.53;2.45;;;;;;;0.20;100.00;100890.56;4717949;30;20078;-81
2022/01/08 06:46:47;;;;;;;6.85;2.88;;;;;;;0.19;100.00;100905.25;4747968;30;20052;-81
2022/01/08 06:49:15;;;;;;;9.25;3.17;;;;;;;0.17;100.00;100911.16;4727401;30;20399;-80
2022/01/08 06:51:44;;;;;;;4.82;2.42;;;;;;;0.17;100.00;100900.78;4728108;30;20039;-81
2022/01/08 06:54:12;;;;;;;6.70;2.50;;;;;;;0.15;100.00;100905.94;4700514;30;20051;-80
2022/01/08 06:56:40;;;;;;;5.07;2.33;;;;;;;0.15;100.00;100902.41;4780020;29;20062;-83
2022/01/08 06:59:09;;;;;;;6.82;2.75;;;;;;;0.11;100.00;100906.56;4759682;30;20063;-81
2022/01/08 07:01:37;;;;;;;7.30;2.70;;;;;;;0.10;100.00;100906.53;4717705;30;20059;-82
2022/01/08 07:04:06;;;;;;;10.38;3.05;;;;;;;0.10;100.00;100906.53;4720172;30;20081;-82
2022/01/08 07:06:34;;;;;;;6.13;2.85;;;;;;;0.10;100.00;100911.72;4753496;29;20387;-81
2022/01/08 07:09:03;;;;;;;6.03;2.90;;;;;;;0.10;100.00;100914.31;4712974;30;22027;-80
2022/01/08 07:11:31;;;;;;;5.85;3.20;;;;;;;0.07;100.00;100906.38;4724203;30;20047;-82
2022/01/08 07:14:01;;;;;;;5.40;3.38;;;;;;;0.05;100.00;100915.78;4746282;30;20090;-82
2022/01/08 07:16:32;;;;;;;9.07;3.85;;;;;;;0.05;100.00;100911.47;4721432;30;20062;-82
2022/01/08 07:19:01;;;;;;;8.23;4.35;;;;;;;0.04;100.00;100911.41;4738186;30;20090;-81
2022/01/08 07:21:29;;;;;;;10.68;5.55;;;;;;;0.03;100.00;100918.28;4760828;30;20383;-81
2022/01/08 07:23:58;;;;;;;12.18;6.40;;;;;;;0.03;100.00;100918.28;4739631;30;20268;-82
2022/01/08 07:26:26;;;;;;;11.07;6.07;;;;;;;0.03;100.00;100912.22;4756498;29;20063;-81
2022/01/08 07:28:54;;;;;;;17.00;7.25;;;;;;;0.02;100.00;100913.94;4746093;30;20054;-81
2022/01/08 07:31:23;;;;;;;17.92;7.18;;;;;;;0.02;100.00;100913.94;4743605;30;20059;-81
2022/01/08 07:33:51;;;;;;;15.65;7.35;;;;;;;0.02;100.00;100911.34;4737493;30;20043;-81
2022/01/08 07:36:20;;;;;;;14.93;7.72;;;;;;;0.02;100.00;100910.44;4735943;30;20063;-81
2022/01/08 07:38:49;;;;;;;15.23;7.28;;;;;;;0.03;100.00;100912.22;4738343;30;20058;-81
2022/01/08 07:41:18;;;;;;;13.02;7.00;;;;;;;0.03;100.00;100913.13;4715977;30;20052;-80
2022/01/08 07:43:46;;;;;;;16.40;6.60;;;;;;;0.02;100.00;100913.94;4715417;30;20044;-81
2022/01/08 07:46:15;;;;;;;16.92;7.30;;;;;;;0.01;100.00;100925.13;4728494;30;20058;-81
2022/01/08 07:48:44;;;;;;;18.08;7.32;;;;;;;0.03;100.00;100922.59;4747097;30;20043;-81
2022/01/08 07:51:12;;;;;;;16.92;6.75;;;;;;;0.01;100.00;100912.16;4738688;30;20047;-82
2022/01/08 07:53:41;;;;;;;17.92;7.40;;;;;;;0.00;100.00;100920.75;4749539;30;20047;-82
2022/01/08 07:56:09;;;;;;;19.40;7.93;;;;;;;0.00;100.00;100920.75;4741432;30;20059;-81
2022/01/08 07:58:38;;;;;;;14.77;7.35;;;;;;;0.01;100.00;100919.06;4757864;30;20436;-81
2022/01/08 08:01:06;;;;;;;19.13;8.10;;;;;;;0.02;100.00;100920.81;4756409;30;22662;-81
2022/01/08 08:03:35;;;;;;;18.27;8.32;;;;;;;0.01;100.00;100914.75;4750546;30;20058;-82
2022/01/08 08:06:03;;;;;;;15.57;8.18;;;;;;;0.01;100.00;100917.34;4748940;30;20040;-81
2022/01/08 08:08:32;;;;;;;18.92;8.45;;;;;;;0.02;100.00;100907.84;4724856;30;20055;-81
2022/01/08 08:11:00;;;;;;;13.75;7.55;;;;;;;0.03;100.00;100901.88;4738762;30;20086;-81
2022/01/08 08:13:29;;;;;;;26.13;9.00;;;;;;;0.04;100.00;100898.44;4714842;30;20047;-81
2022/01/08 08:15:58;;;;;;;23.48;9.25;;;;;;;0.05;100.00;100895.06;4748772;30;20335;-82
2022/01/08 08:18:26;;;;;;;14.25;7.07;;;;;;;0.05;100.00;100895.94;4722082;30;20414;-81
2022/01/08 08:20:55;;;;;;;15.13;7.15;;;;;;;0.07;100.00;100889.13;4739592;30;20086;-82
2022/01/08 08:23:24;;;;;;;14.02;6.85;;;;;;;0.09;100.00;100881.41;4734154;30;20063;-80
2022/01/08 08:25:52;;;;;;;17.27;6.88;;;;;;;0.10;100.00;100875.44;4729595;30;20051;-80
2022/01/08 08:28:21;;;;;;;21.52;6.75;;;;;;;0.13;100.00;100872.97;4738562;30;20063;-80
2022/01/08 08:30:49;;;;;;;13.32;6.43;;;;;;;0.15;100.00;100867.06;4760827;30;20522;-81
2022/01/08 08:33:18;;;;;;;16.85;6.18;;;;;;;0.17;100.00;100867.09;4721839;30;20040;-81
2022/01/08 08:35:47;;;;;;;12.10;6.65;;;;;;;0.21;100.00;100876.81;4711455;30;20052;-81
2022/01/08 08:38:16;;;;;;;13.50;6.07;;;;;;;0.24;100.00;100852.72;4732739;30;20044;-81
2022/01/08 08:40:44;;;;;;;13.57;5.50;;;;;;;0.27;100.00;100858.06;4733950;30;20048;-83
2022/01/08 08:43:13;;;;;;;18.25;5.85;;;;;;;0.30;100.00;100847.81;4698523;30;20068;-81
2022/01/08 08:45:41;;;;;;;11.30;5.22;;;;;;;0.34;100.00;100841.94;4749770;30;20051;-81
2022/01/08 08:48:10;;;;;;;17.17;6.25;;;;;;;0.38;100.00;100854.25;4713477;30;20285;-82
2022/01/08 08:50:39;;;;;;;12.07;5.55;;;;;;;0.43;100.00;100849.25;4744234;30;20510;-81
2022/01/08 08:53:07;;;;;;;12.60;6.10;;;;;;;0.46;100.00;100854.56;4736828;30;20048;-81
2022/01/08 08:55:36;;;;;;;14.60;5.55;;;;;;;0.51;100.00;100851.38;4748551;30;20051;-82
2022/01/08 08:58:05;;;;;;;15.77;5.95;;;;;;;0.57;100.00;100855.94;4720812;30;21231;-82
2022/01/08 09:00:33;;;;;;;13.63;5.18;;;;;;;0.61;100.00;100851.78;4749010;30;20062;-82
2022/01/08 09:03:02;;;;;;;17.48;5.85;;;;;;;0.65;100.00;100856.25;4739290;30;20662;-81
2022/01/08 09:05:31;;;;;;;10.57;4.95;;;;;;;0.68;100.00;100849.50;4746191;30;20058;-82
2022/01/08 09:08:00;;;;;;;15.23;6.32;;;;;;;0.72;100.00;100845.34;4735545;30;20052;-81
2022/01/08 09:10:29;;;;;;;8.98;4.88;;;;;;;0.75;100.00;100846.34;4744907;30;20048;-82
2022/01/08 09:12:57;;;;;;;18.73;5.18;;;;;;;0.76;100.00;100842.94;4721480;30;20454;-81
2022/01/08 09:15:26;;;;;;;10.98;5.07;;;;;;;0.79;100.00;100849.94;4733568;30;20056;-82
2022/01/08 09:17:58;;;;;;;13.15;4.93;;;;;;;0.82;100.00;100844.91;4732884;30;20047;-81
2022/01/08 09:20:28;;;;;;;16.05;5.28;;;;;;;0.85;100.00;100849.31;4757481;29;20419;-83
2022/01/08 09:22:57;;;;;;;11.43;4.90;;;;;;;0.87;100.00;100845.09;4733372;30;20185;-81
2022/01/08 09:25:26;;;;;;;12.13;4.85;;;;;;;0.91;100.00;100849.59;4735927;30;20040;-82
2022/01/08 09:27:54;;;;;;;14.00;4.72;;;;;;;0.94;100.00;100836.75;4713277;30;20682;-81
2022/01/08 09:30:23;;;;;;;6.20;4.20;;;;;;;0.97;100.00;100837.75;4718383;30;20410;-82
2022/01/08 09:32:53;;;;;;;13.40;4.97;;;;;;;1.01;100.00;100833.59;4738820;30;20059;-84
2022/01/08 09:35:23;;;;;;;13.15;4.70;;;;;;;1.05;100.00;100837.19;4729703;30;20507;-80
2022/01/08 09:37:53;;;;;;;12.98;4.63;;;;;;;1.05;100.00;100832.88;4747207;30;20059;-81
2022/01/08 09:40:24;;;;;;;10.38;4.35;;;;;;;1.06;100.00;100824.28;4705297;30;20054;-82
2022/01/08 09:42:52;;;;;;;12.82;5.18;;;;;;;1.07;100.00;100820.84;4736065;30;20052;-81
2022/01/08 09:45:21;;;;;;;12.88;5.45;;;;;;;1.13;100.00;100817.63;4716958;30;20070;-82
2022/01/08 09:47:50;;;;;;;12.93;5.80;;;;;;;1.16;100.00;100807.38;4736108;30;20067;-80
2022/01/08 09:50:19;;;;;;;13.57;5.57;;;;;;;1.21;100.00;100798.06;4729505;30;20104;-80
2022/01/08 09:52:47;;;;;;;16.25;5.63;;;;;;;1.24;100.00;100787.78;4729876;30;20056;-81
2022/01/08 09:55:16;;;;;;;12.65;5.85;;;;;;;1.30;100.00;100788.03;4716597;30;20044;-82
2022/01/08 09:57:44;;;;;;;18.25;5.85;;;;;;;1.38;100.00;100782.25;4747597;30;20039;-83
2022/01/08 10:00:16;;;;;;;10.43;5.43;;;;;;;1.44;100.00;100777.34;4693637;30;20040;-82
2022/01/08 10:02:45;;;;;;;12.70;5.20;;;;;;;1.51;100.00;100775.03;4707582;30;20055;-81
2022/01/08 10:05:15;;;;;;;11.35;4.72;;;;;;;1.59;100.00;100756.22;4705635;30;20059;-80
2022/01/08 10:08:00;;;;;;;16.10;5.65;;;;;;;1.67;100.00;100754.84;4756753;30;20503;-81
2022/01/08 10:10:29;;;;;;;8.10;4.88;;;;;;;1.74;100.00;100751.63;4721970;30;20454;-81
2022/01/08 10:13:00;;;;;;;10.70;4.55;;;;;;;1.77;100.00;100740.47;4751818;30;20056;-80
2022/01/08 10:18:27;;;;;;;11.48;4.95;;;;;;;1.79;100.00;100744.88;4755011;30;20067;-82
2022/01/08 10:20:57;;;;;;;19.90;5.38;;;;;;;1.79;100.00;100747.47;4766195;30;20094;-82
2022/01/08 10:23:28;;;;;;;12.20;4.47;;;;;;;1.79;100.00;100738.81;4744002;30;20090;-81
2022/01/08 10:26:03;;;;;;;9.00;4.72;;;;;;;1.80;100.00;100738.88;4739349;30;20044;-82
2022/01/08 10:28:35;;;;;;;10.45;4.45;;;;;;;1.83;100.00;100738.97;4738347;30;20168;-82
2022/01/08 10:31:09;;;;;;;11.88;4.20;;;;;;;1.86;100.00;100746.00;4727082;30;20051;-80
2022/01/08 10:33:40;;;;;;;11.23;4.57;;;;;;;1.86;100.00;100740.81;4749225;30;20055;-80
2022/01/08 10:36:09;;;;;;;15.32;5.60;;;;;;;1.89;100.00;100734.00;4718200;30;20043;-81
2022/01/08 10:38:37;;;;;;;12.98;4.57;;;;;;;1.88;100.00;100719.22;4741199;30;20039;-81
2022/01/08 10:41:13;;;;;;;11.35;4.82;;;;;;;1.91;100.00;100724.56;4732665;30;20067;-81
2022/01/08 10:43:44;;;;;;;17.08;4.53;;;;;;;1.92;100.00;100728.91;4740591;30;20185;-80
2022/01/08 10:46:19;;;;;;;14.30;4.57;;;;;;;1.92;100.00;100710.72;4738522;30;20039;-81
2022/01/08 10:48:49;;;;;;;12.30;5.10;;;;;;;1.92;100.00;100710.72;4712633;30;20051;-82
2022/01/08 10:51:19;;;;;;;12.93;4.72;;;;;;;1.93;100.00;100709.91;4734849;30;20048;-83
2022/01/08 10:54:01;;;;;;;11.98;4.78;;;;;;;1.94;100.00;100703.84;4746184;30;20052;-81
2022/01/08 10:56:31;;;;;;;11.20;4.68;;;;;;;1.95;100.00;100707.38;4734699;30;20610;-80
2022/01/08 10:59:12;;;;;;;12.80;5.80;;;;;;;1.95;100.00;100710.84;4752398;30;20047;-82
2022/01/08 11:01:46;;;;;;;12.48;5.90;;;;;;;1.95;100.00;100700.44;4745595;30;20066;-82
2022/01/08 11:04:39;;;;;;;12.35;4.78;;;;;;;1.97;100.00;100697.91;4749683;30;20412;-81
2022/01/08 11:07:08;;;;;;;11.18;4.63;;;;;;;1.97;100.00;100694.41;4738634;30;20225;-82
2022/01/08 11:09:39;;;;;;;10.52;4.85;;;;;;;1.94;100.00;100680.47;4759554;30;20163;-81
2022/01/08 11:12:14;;;;;;;14.32;4.50;;;;;;;1.93;100.00;100667.44;4761992;30;20270;-82
2022/01/08 11:17:24;;;;;;;9.70;4.68;;;;;;;1.93;100.00;100660.53;4705363;30;20123;-82
2022/01/08 11:19:56;;;;;;;10.05;4.75;;;;;;;1.93;100.00;100637.13;4716235;30;20550;-79
2022/01/08 11:22:28;;;;;;;14.70;4.93;;;;;;;1.95;100.00;100632.88;4691576;30;20177;-80
2022/01/08 11:25:30;;;;;;;13.68;4.78;;;;;;;1.94;100.00;100618.09;4697228;30;24091;-83
2022/01/08 11:28:10;;;;;;;10.48;4.18;;;;;;;1.95;100.00;100617.28;4741526;30;20087;-81
2022/01/08 11:30:41;;;;;;;15.93;5.50;;;;;;;1.97;100.00;100626.81;4721451;30;20059;-81
2022/01/08 11:35:53;;;;;;;9.45;5.78;;;;;;;2.03;100.00;100604.53;4734471;30;20303;-81
2022/01/08 11:38:23;;;;;;;15.77;6.88;;;;;;;2.07;100.00;100596.00;4695859;30;20620;-81
2022/01/08 11:40:54;;;;;;;17.13;6.68;;;;;;;2.14;100.00;100584.13;4714097;30;20056;-81
2022/01/08 11:43:26;;;;;;;11.35;5.82;;;;;;;2.20;100.00;100584.31;4713837;30;20067;-81
2022/01/08 11:46:01;;;;;;;11.32;5.57;;;;;;;2.26;100.00;100581.03;4739542;30;20067;-82
2022/01/08 11:48:43;;;;;;;11.60;5.43;;;;;;;2.29;100.00;100568.13;4713030;30;20072;-81
2022/01/08 11:51:21;;;;;;;12.90;6.78;;;;;;;2.30;100.00;100562.97;4714656;30;20064;-79
2022/01/08 11:56:45;;;;;;;17.15;7.45;;;;;;;2.39;100.00;100548.50;4723794;30;20067;-80
2022/01/08 11:59:18;;;;;;;11.38;5.70;;;;;;;2.38;100.00;100541.53;4726554;30;20049;-81
2022/01/08 12:02:08;;;;;;;12.05;6.57;;;;;;;2.34;100.00;100528.44;4739500;30;20064;-80
2022/01/08 12:04:41;;;;;;;8.73;6.43;;;;;;;2.36;100.00;100527.59;4700525;30;20056;-79
2022/01/08 12:07:34;;;;;;;11.80;6.53;;;;;;;2.31;100.00;100512.72;4700144;30;20047;-80